sensor_id;sensor_type;location;lat;lon;timestamp;pressure;altitude;pressure_sealevel;temperature;humidity
46223;BME280;31943;51.410;7.564;2023-01-29T06:54:22;101564.25;;;-0.83;66.64
46223;BME280;31943;51.410;7.564;2023-01-29T06:56:48;101567.13;;;-0.78;66.65
46223;BME280;31943;51.410;7.564;2023-01-29T06:59:15;101565.06;;;-0.72;66.45
46223;BME280;31943;51.410;7.564;2023-01-29T07:01:42;101565.66;;;-0.65;66.63
46223;BME280;31943;51.410;7.564;2023-01-29T07:04:07;101566.75;;;-0.61;66.47
46223;BME280;31943;51.410;7.564;2023-01-29T07:06:33;101573.25;;;-0.54;66.48
46223;BME280;31943;51.410;7.564;2023-01-29T07:08:59;101575.28;;;-0.50;66.32
46223;BME280;31943;51.410;7.564;2023-01-29T07:11:26;101573.06;;;-0.46;66.46
46223;BME280;31943;51.410;7.564;2023-01-29T07:13:52;101569.94;;;-0.42;66.35
46223;BME280;31943;51.410;7.564;2023-01-29T07:16:18;101570.31;;;-0.37;66.37
46223;BME280;31943;51.410;7.564;2023-01-29T07:18:44;101574.75;;;-0.34;66.31
46223;BME280;31943;51.410;7.564;2023-01-29T07:21:10;101567.19;;;-0.33;66.37
46223;BME280;31943;51.410;7.564;2023-01-29T07:25:59;101558.69;;;-0.32;66.29
46223;BME280;31943;51.410;7.564;2023-01-29T07:28:25;101562.50;;;-0.27;66.30
46223;BME280;31943;51.410;7.564;2023-01-29T07:30:54;101559.41;;;-0.23;66.11
46223;BME280;31943;51.410;7.564;2023-01-29T07:33:20;101563.41;;;-0.26;65.95
46223;BME280;31943;51.410;7.564;2023-01-29T07:35:46;101560.38;;;-0.32;66.01
46223;BME280;31943;51.410;7.564;2023-01-29T07:38:11;101552.69;;;-0.32;65.94
46223;BME280;31943;51.410;7.564;2023-01-29T07:40:37;101546.88;;;-0.30;66.09
46223;BME280;31943;51.410;7.564;2023-01-29T07:43:08;101545.69;;;-0.23;66.01
46223;BME280;31943;51.410;7.564;2023-01-29T07:45:36;101538.31;;;-0.30;66.06
46223;BME280;31943;51.410;7.564;2023-01-29T07:48:03;101548.78;;;-0.39;66.17
46223;BME280;31943;51.410;7.564;2023-01-29T07:50:29;101551.22;;;-0.41;66.21
46223;BME280;31943;51.410;7.564;2023-01-29T07:52:55;101553.91;;;-0.39;66.33
46223;BME280;31943;51.410;7.564;2023-01-29T07:55:20;101548.69;;;-0.29;66.23
46223;BME280;31943;51.410;7.564;2023-01-29T07:57:54;101552.69;;;-0.21;66.09
46223;BME280;31943;51.410;7.564;2023-01-29T08:00:23;101545.25;;;-0.17;65.97
46223;BME280;31943;51.410;7.564;2023-01-29T08:02:49;101546.03;;;-0.07;65.64
46223;BME280;31943;51.410;7.564;2023-01-29T08:05:15;101534.75;;;0.03;65.80
46223;BME280;31943;51.410;7.564;2023-01-29T08:07:42;101538.31;;;0.05;65.70
46223;BME280;31943;51.410;7.564;2023-01-29T08:10:08;101531.75;;;0.09;65.68
46223;BME280;31943;51.410;7.564;2023-01-29T08:12:34;101534.19;;;0.07;65.88
46223;BME280;31943;51.410;7.564;2023-01-29T08:15:00;101539.56;;;0.10;65.63
46223;BME280;31943;51.410;7.564;2023-01-29T08:17:27;101525.38;;;0.15;65.62
46223;BME280;31943;51.410;7.564;2023-01-29T08:19:53;101520.25;;;0.15;65.67
46223;BME280;31943;51.410;7.564;2023-01-29T08:22:19;101523.81;;;0.17;65.62
46223;BME280;31943;51.410;7.564;2023-01-29T08:24:44;101507.75;;;0.20;65.36
46223;BME280;31943;51.410;7.564;2023-01-29T08:27:11;101503.28;;;0.17;65.50
46223;BME280;31943;51.410;7.564;2023-01-29T08:29:36;101509.09;;;0.15;65.69
46223;BME280;31943;51.410;7.564;2023-01-29T08:32:02;101516.78;;;0.15;65.54
46223;BME280;31943;51.410;7.564;2023-01-29T08:34:30;101521.59;;;0.10;65.60
46223;BME280;31943;51.410;7.564;2023-01-29T08:36:55;101526.63;;;0.09;65.65
46223;BME280;31943;51.410;7.564;2023-01-29T08:39:21;101533.19;;;0.17;65.67
46223;BME280;31943;51.410;7.564;2023-01-29T08:41:49;101528.84;;;0.28;65.36
46223;BME280;31943;51.410;7.564;2023-01-29T08:44:14;101523.03;;;0.30;65.37
46223;BME280;31943;51.410;7.564;2023-01-29T08:46:40;101524.03;;;0.21;65.36
46223;BME280;31943;51.410;7.564;2023-01-29T08:49:05;101523.03;;;0.18;65.51
46223;BME280;31943;51.410;7.564;2023-01-29T08:51:32;101513.22;;;0.25;65.37
46223;BME280;31943;51.410;7.564;2023-01-29T08:53:58;101501.59;;;0.30;65.42
46223;BME280;31943;51.410;7.564;2023-01-29T08:56:24;101495.56;;;0.29;65.27
46223;BME280;31943;51.410;7.564;2023-01-29T08:58:49;101474.25;;;0.30;65.45
46223;BME280;31943;51.410;7.564;2023-01-29T09:01:14;101476.81;;;0.30;65.56
46223;BME280;31943;51.410;7.564;2023-01-29T09:03:40;101483.09;;;0.22;65.24
46223;BME280;31943;51.410;7.564;2023-01-29T09:06:07;101487.66;;;0.26;65.12
46223;BME280;31943;51.410;7.564;2023-01-29T09:08:35;101492.34;;;0.32;64.90
46223;BME280;31943;51.410;7.564;2023-01-29T09:11:01;101487.75;;;0.39;64.91
46223;BME280;31943;51.410;7.564;2023-01-29T09:13:27;101489.38;;;0.51;64.83
46223;BME280;31943;51.410;7.564;2023-01-29T09:15:52;101483.78;;;0.56;64.62
46223;BME280;31943;51.410;7.564;2023-01-29T09:18:18;101484.78;;;0.58;64.59
46223;BME280;31943;51.410;7.564;2023-01-29T09:20:44;101477.06;;;0.58;64.50
46223;BME280;31943;51.410;7.564;2023-01-29T09:23:10;101470.16;;;0.57;64.56
46223;BME280;31943;51.410;7.564;2023-01-29T09:25:37;101469.47;;;0.60;64.58
46223;BME280;31943;51.410;7.564;2023-01-29T09:28:04;101467.31;;;0.66;64.75
46223;BME280;31943;51.410;7.564;2023-01-29T09:30:30;101470.88;;;0.68;64.59
46223;BME280;31943;51.410;7.564;2023-01-29T09:32:55;101470.75;;;0.78;64.73
46223;BME280;31943;51.410;7.564;2023-01-29T09:35:21;101461.16;;;0.76;64.63
46223;BME280;31943;51.410;7.564;2023-01-29T09:37:47;101460.91;;;0.85;64.04
46223;BME280;31943;51.410;7.564;2023-01-29T09:40:20;101466.22;;;0.88;64.40
46223;BME280;31943;51.410;7.564;2023-01-29T09:42:54;101466.00;;;0.96;64.30
46223;BME280;31943;51.410;7.564;2023-01-29T09:45:23;101465.28;;;0.99;64.17
46223;BME280;31943;51.410;7.564;2023-01-29T09:47:52;101464.03;;;1.06;64.42
46223;BME280;31943;51.410;7.564;2023-01-29T09:50:28;101461.50;;;1.19;64.08
46223;BME280;31943;51.410;7.564;2023-01-29T09:52:58;101465.47;;;1.27;63.96
46223;BME280;31943;51.410;7.564;2023-01-29T09:55:28;101465.78;;;1.32;63.84
46223;BME280;31943;51.410;7.564;2023-01-29T09:57:58;101457.38;;;1.34;63.91
46223;BME280;31943;51.410;7.564;2023-01-29T10:00:31;101445.59;;;1.25;63.72
46223;BME280;31943;51.410;7.564;2023-01-29T10:03:19;101446.66;;;1.15;63.74
46223;BME280;31943;51.410;7.564;2023-01-29T10:06:14;101455.94;;;1.13;63.97
46223;BME280;31943;51.410;7.564;2023-01-29T10:09:12;101456.94;;;1.15;63.97
46223;BME280;31943;51.410;7.564;2023-01-29T10:11:53;101462.09;;;1.15;64.02
46223;BME280;31943;51.410;7.564;2023-01-29T10:14:30;101463.19;;;1.18;63.84
46223;BME280;31943;51.410;7.564;2023-01-29T10:17:08;101462.72;;;1.24;64.02
46223;BME280;31943;51.410;7.564;2023-01-29T10:19:57;101457.81;;;1.15;63.76
46223;BME280;31943;51.410;7.564;2023-01-29T10:22:49;101466.63;;;1.19;64.03
46223;BME280;31943;51.410;7.564;2023-01-29T10:25:20;101459.16;;;1.22;64.21
46223;BME280;31943;51.410;7.564;2023-01-29T10:27:48;101459.56;;;1.28;64.02
46223;BME280;31943;51.410;7.564;2023-01-29T10:30:28;101459.47;;;1.40;63.65
46223;BME280;31943;51.410;7.564;2023-01-29T10:32:58;101457.41;;;1.48;63.37
46223;BME280;31943;51.410;7.564;2023-01-29T10:35:29;101462.94;;;1.54;63.38
46223;BME280;31943;51.410;7.564;2023-01-29T10:37:57;101457.09;;;1.56;63.45
46223;BME280;31943;51.410;7.564;2023-01-29T10:40:33;101459.59;;;1.55;63.42
46223;BME280;31943;51.410;7.564;2023-01-29T10:43:06;101445.72;;;1.53;63.41
46223;BME280;31943;51.410;7.564;2023-01-29T10:45:42;101445.06;;;1.55;63.31
46223;BME280;31943;51.410;7.564;2023-01-29T10:48:36;101433.19;;;1.57;63.35
46223;BME280;31943;51.410;7.564;2023-01-29T10:51:13;101417.44;;;1.53;63.36
46223;BME280;31943;51.410;7.564;2023-01-29T10:53:53;101411.78;;;1.58;63.54
46223;BME280;31943;51.410;7.564;2023-01-29T10:56:33;101407.53;;;1.72;63.30
46223;BME280;31943;51.410;7.564;2023-01-29T10:59:03;101399.31;;;1.78;62.91
46223;BME280;31943;51.410;7.564;2023-01-29T11:01:33;101408.13;;;1.82;62.76
46223;BME280;31943;51.410;7.564;2023-01-29T11:04:00;101399.41;;;1.93;62.77
46223;BME280;31943;51.410;7.564;2023-01-29T11:06:29;101392.41;;;1.90;62.49
46223;BME280;31943;51.410;7.564;2023-01-29T11:09:00;101391.69;;;1.93;62.46
46223;BME280;31943;51.410;7.564;2023-01-29T11:11:32;101399.00;;;2.00;62.22
46223;BME280;31943;51.410;7.564;2023-01-29T11:14:02;101388.13;;;2.04;62.07
46223;BME280;31943;51.410;7.564;2023-01-29T11:16:29;101390.38;;;2.00;61.90
46223;BME280;31943;51.410;7.564;2023-01-29T11:18:58;101396.13;;;2.09;62.02
46223;BME280;31943;51.410;7.564;2023-01-29T11:21:26;101403.13;;;2.11;61.85
46223;BME280;31943;51.410;7.564;2023-01-29T11:24:05;101396.81;;;2.20;61.82
46223;BME280;31943;51.410;7.564;2023-01-29T11:26:34;101391.91;;;2.24;61.56
46223;BME280;31943;51.410;7.564;2023-01-29T11:29:01;101390.94;;;2.22;61.50
46223;BME280;31943;51.410;7.564;2023-01-29T11:31:34;101395.38;;;2.25;61.47
46223;BME280;31943;51.410;7.564;2023-01-29T11:34:05;101391.41;;;2.30;61.70
46223;BME280;31943;51.410;7.564;2023-01-29T11:36:37;101383.59;;;2.28;61.59
46223;BME280;31943;51.410;7.564;2023-01-29T11:39:16;101386.06;;;2.27;61.49
46223;BME280;31943;51.410;7.564;2023-01-29T11:41:44;101376.06;;;2.31;61.66
46223;BME280;31943;51.410;7.564;2023-01-29T11:44:20;101376.84;;;2.30;61.39
46223;BME280;31943;51.410;7.564;2023-01-29T11:46:46;101367.06;;;2.25;61.57
46223;BME280;31943;51.410;7.564;2023-01-29T11:49:24;101360.50;;;2.30;61.62
46223;BME280;31943;51.410;7.564;2023-01-29T11:51:54;101344.13;;;2.29;61.38
46223;BME280;31943;51.410;7.564;2023-01-29T11:54:24;101337.31;;;2.30;61.46
46223;BME280;31943;51.410;7.564;2023-01-29T11:56:52;101338.47;;;2.35;61.33
46223;BME280;31943;51.410;7.564;2023-01-29T11:59:36;101341.34;;;2.40;61.04
46223;BME280;31943;51.410;7.564;2023-01-29T12:02:11;101335.38;;;2.41;61.21
46223;BME280;31943;51.410;7.564;2023-01-29T12:04:43;101325.78;;;2.38;61.21
46223;BME280;31943;51.410;7.564;2023-01-29T12:07:12;101318.06;;;2.38;61.23
46223;BME280;31943;51.410;7.564;2023-01-29T12:09:38;101312.56;;;2.47;61.21
46223;BME280;31943;51.410;7.564;2023-01-29T12:12:17;101300.34;;;2.57;61.00
46223;BME280;31943;51.410;7.564;2023-01-29T12:15:02;101301.41;;;2.61;61.13
46223;BME280;31943;51.410;7.564;2023-01-29T12:17:29;101298.47;;;2.70;60.89
46223;BME280;31943;51.410;7.564;2023-01-29T12:20:03;101290.63;;;2.68;60.82
46223;BME280;31943;51.410;7.564;2023-01-29T12:22:37;101279.28;;;2.65;60.90
46223;BME280;31943;51.410;7.564;2023-01-29T12:25:10;101274.91;;;2.64;60.76
46223;BME280;31943;51.410;7.564;2023-01-29T12:27:47;101270.19;;;2.56;60.68
46223;BME280;31943;51.410;7.564;2023-01-29T12:30:20;101263.19;;;2.54;60.84
46223;BME280;31943;51.410;7.564;2023-01-29T12:32:53;101247.63;;;2.52;60.85
46223;BME280;31943;51.410;7.564;2023-01-29T12:35:25;101240.44;;;2.47;61.02
46223;BME280;31943;51.410;7.564;2023-01-29T12:37:53;101231.19;;;2.50;61.04
46223;BME280;31943;51.410;7.564;2023-01-29T12:40:24;101236.97;;;2.46;60.99
46223;BME280;31943;51.410;7.564;2023-01-29T12:42:55;101224.09;;;2.46;60.95
46223;BME280;31943;51.410;7.564;2023-01-29T12:45:23;101214.84;;;2.50;60.93
46223;BME280;31943;51.410;7.564;2023-01-29T12:47:51;101211.56;;;2.52;61.15
46223;BME280;31943;51.410;7.564;2023-01-29T12:50:20;101207.66;;;2.59;60.91
46223;BME280;31943;51.410;7.564;2023-01-29T12:52:51;101201.69;;;2.60;60.65
46223;BME280;31943;51.410;7.564;2023-01-29T12:55:21;101190.41;;;2.58;60.99
46223;BME280;31943;51.410;7.564;2023-01-29T12:57:54;101181.38;;;2.65;60.85
46223;BME280;31943;51.410;7.564;2023-01-29T13:00:22;101182.41;;;2.68;61.01
46223;BME280;31943;51.410;7.564;2023-01-29T13:02:53;101183.84;;;2.63;60.87
46223;BME280;31943;51.410;7.564;2023-01-29T13:05:24;101183.66;;;2.60;60.88
46223;BME280;31943;51.410;7.564;2023-01-29T13:07:57;101184.53;;;2.61;60.72
46223;BME280;31943;51.410;7.564;2023-01-29T13:10:28;101179.38;;;2.61;60.75
46223;BME280;31943;51.410;7.564;2023-01-29T13:12:58;101182.53;;;2.55;60.88
46223;BME280;31943;51.410;7.564;2023-01-29T13:15:29;101186.72;;;2.53;61.13
46223;BME280;31943;51.410;7.564;2023-01-29T13:18:06;101184.91;;;2.52;61.16
46223;BME280;31943;51.410;7.564;2023-01-29T13:20:37;101184.03;;;2.51;60.69
46223;BME280;31943;51.410;7.564;2023-01-29T13:23:14;101177.44;;;2.56;60.94
46223;BME280;31943;51.410;7.564;2023-01-29T13:25:43;101175.78;;;2.57;60.93
46223;BME280;31943;51.410;7.564;2023-01-29T13:28:15;101174.16;;;2.59;61.01
46223;BME280;31943;51.410;7.564;2023-01-29T13:30:42;101175.56;;;2.54;60.91
46223;BME280;31943;51.410;7.564;2023-01-29T13:33:19;101172.22;;;2.55;60.93
46223;BME280;31943;51.410;7.564;2023-01-29T13:35:47;101168.66;;;2.53;61.09
46223;BME280;31943;51.410;7.564;2023-01-29T13:38:27;101168.66;;;2.53;60.89
46223;BME280;31943;51.410;7.564;2023-01-29T13:40:59;101165.38;;;2.55;61.20
46223;BME280;31943;51.410;7.564;2023-01-29T13:43:26;101160.56;;;2.62;61.21
46223;BME280;31943;51.410;7.564;2023-01-29T13:45:56;101163.13;;;2.62;61.13
46223;BME280;31943;51.410;7.564;2023-01-29T13:48:24;101165.97;;;2.66;61.16
46223;BME280;31943;51.410;7.564;2023-01-29T13:50:52;101154.03;;;2.68;60.97
46223;BME280;31943;51.410;7.564;2023-01-29T13:53:21;101155.66;;;2.66;61.06
46223;BME280;31943;51.410;7.564;2023-01-29T13:55:52;101149.53;;;2.64;61.09
46223;BME280;31943;51.410;7.564;2023-01-29T13:58:52;101153.00;;;2.65;61.19
46223;BME280;31943;51.410;7.564;2023-01-29T14:04:25;101154.03;;;2.68;60.97
46223;BME280;31943;51.410;7.564;2023-01-29T14:06:52;101151.94;;;2.61;61.17
46223;BME280;31943;51.410;7.564;2023-01-29T14:12:35;101151.13;;;2.62;61.24
46223;BME280;31943;51.410;7.564;2023-01-29T14:15:12;101157.28;;;2.49;61.11
46223;BME280;31943;51.410;7.564;2023-01-29T14:17:39;101156.03;;;2.43;61.19
46223;BME280;31943;51.410;7.564;2023-01-29T14:20:20;101159.97;;;2.36;61.32
46223;BME280;31943;51.410;7.564;2023-01-29T14:22:52;101153.75;;;2.32;61.17
46223;BME280;31943;51.410;7.564;2023-01-29T14:25:23;101160.59;;;2.32;61.22
46223;BME280;31943;51.410;7.564;2023-01-29T14:27:55;101164.13;;;2.34;61.46
46223;BME280;31943;51.410;7.564;2023-01-29T14:30:23;101165.38;;;2.41;61.37
46223;BME280;31943;51.410;7.564;2023-01-29T14:32:50;101167.59;;;2.34;61.52
46223;BME280;31943;51.410;7.564;2023-01-29T14:35:18;101169.38;;;2.35;61.66
46223;BME280;31943;51.410;7.564;2023-01-29T14:37:46;101162.16;;;2.45;61.55
46223;BME280;31943;51.410;7.564;2023-01-29T14:40:19;101160.75;;;2.50;61.61
46223;BME280;31943;51.410;7.564;2023-01-29T14:42:57;101158.25;;;2.51;61.49
46223;BME280;31943;51.410;7.564;2023-01-29T14:45:27;101160.84;;;2.51;61.64
46223;BME280;31943;51.410;7.564;2023-01-29T14:50:45;101164.94;;;2.48;61.54
46223;BME280;31943;51.410;7.564;2023-01-29T14:53:15;101155.34;;;2.45;61.54
46223;BME280;31943;51.410;7.564;2023-01-29T14:55:48;101153.91;;;2.50;61.86
46223;BME280;31943;51.410;7.564;2023-01-29T15:00:49;101148.66;;;2.49;61.60
46223;BME280;31943;51.410;7.564;2023-01-29T15:03:19;101138.91;;;2.43;61.63
46223;BME280;31943;51.410;7.564;2023-01-29T15:05:50;101147.09;;;2.36;61.52
46223;BME280;31943;51.410;7.564;2023-01-29T15:08:22;101141.06;;;2.35;61.67
46223;BME280;31943;51.410;7.564;2023-01-29T15:10:52;101146.09;;;2.34;61.78
46223;BME280;31943;51.410;7.564;2023-01-29T15:13:31;101145.47;;;2.38;61.65
46223;BME280;31943;51.410;7.564;2023-01-29T15:16:03;101140.97;;;2.34;61.63
46223;BME280;31943;51.410;7.564;2023-01-29T15:18:36;101137.66;;;2.36;61.80
46223;BME280;31943;51.410;7.564;2023-01-29T15:21:04;101131.97;;;2.42;61.76
46223;BME280;31943;51.410;7.564;2023-01-29T15:23:31;101134.31;;;2.37;61.66
46223;BME280;31943;51.410;7.564;2023-01-29T15:25:59;101122.19;;;2.36;61.71
46223;BME280;31943;51.410;7.564;2023-01-29T15:28:30;101122.38;;;2.40;61.60
46223;BME280;31943;51.410;7.564;2023-01-29T15:30:57;101114.38;;;2.35;61.71
46223;BME280;31943;51.410;7.564;2023-01-29T15:33:24;101115.09;;;2.32;61.80
46223;BME280;31943;51.410;7.564;2023-01-29T15:35:54;101113.34;;;2.31;61.69
46223;BME280;31943;51.410;7.564;2023-01-29T15:38:22;101110.59;;;2.28;61.49
46223;BME280;31943;51.410;7.564;2023-01-29T15:40:52;101113.88;;;2.26;61.75
46223;BME280;31943;51.410;7.564;2023-01-29T15:43:20;101108.72;;;2.26;61.51
46223;BME280;31943;51.410;7.564;2023-01-29T15:45:48;101106.94;;;2.25;61.75
46223;BME280;31943;51.410;7.564;2023-01-29T15:48:18;101111.66;;;2.32;61.88
46223;BME280;31943;51.410;7.564;2023-01-29T15:50:45;101106.84;;;2.38;61.78
46223;BME280;31943;51.410;7.564;2023-01-29T15:53:14;101102.66;;;2.40;61.69
46223;BME280;31943;51.410;7.564;2023-01-29T15:55:43;101110.78;;;2.31;61.68
46223;BME280;31943;51.410;7.564;2023-01-29T15:58:15;101107.19;;;2.29;61.79
46223;BME280;31943;51.410;7.564;2023-01-29T16:00:50;101111.47;;;2.29;61.51
46223;BME280;31943;51.410;7.564;2023-01-29T16:03:20;101117.25;;;2.25;61.76
46223;BME280;31943;51.410;7.564;2023-01-29T16:05:46;101110.03;;;2.19;61.93
46223;BME280;31943;51.410;7.564;2023-01-29T16:08:14;101116.88;;;2.18;62.00
46223;BME280;31943;51.410;7.564;2023-01-29T16:10:40;101106.59;;;2.18;62.24
46223;BME280;31943;51.410;7.564;2023-01-29T16:13:10;101105.53;;;2.15;62.09
46223;BME280;31943;51.410;7.564;2023-01-29T16:15:54;101108.00;;;2.13;62.13
46223;BME280;31943;51.410;7.564;2023-01-29T16:18:24;101102.06;;;2.14;62.30
46223;BME280;31943;51.410;7.564;2023-01-29T16:20:55;101102.16;;;2.16;62.29
46223;BME280;31943;51.410;7.564;2023-01-29T16:23:24;101096.28;;;2.18;62.50
46223;BME280;31943;51.410;7.564;2023-01-29T16:25:51;101094.69;;;2.21;62.53
46223;BME280;31943;51.410;7.564;2023-01-29T16:28:17;101089.53;;;2.21;62.60
46223;BME280;31943;51.410;7.564;2023-01-29T16:30:43;101079.34;;;2.22;62.75
46223;BME280;31943;51.410;7.564;2023-01-29T16:33:14;101075.88;;;2.22;62.58
46223;BME280;31943;51.410;7.564;2023-01-29T16:35:41;101072.88;;;2.14;62.88
46223;BME280;31943;51.410;7.564;2023-01-29T16:38:18;101071.31;;;2.17;62.97
46223;BME280;31943;51.410;7.564;2023-01-29T16:41:07;101060.25;;;2.18;62.81
46223;BME280;31943;51.410;7.564;2023-01-29T16:43:57;101068.22;;;2.23;62.95
46223;BME280;31943;51.410;7.564;2023-01-29T16:46:25;101052.84;;;2.25;62.94
46223;BME280;31943;51.410;7.564;2023-01-29T16:48:53;101065.00;;;2.27;63.10
46223;BME280;31943;51.410;7.564;2023-01-29T16:51:27;101062.38;;;2.26;63.45
46223;BME280;31943;51.410;7.564;2023-01-29T16:54:05;101062.53;;;2.29;63.14
46223;BME280;31943;51.410;7.564;2023-01-29T16:56:32;101060.22;;;2.33;63.30
46223;BME280;31943;51.410;7.564;2023-01-29T16:58:59;101047.34;;;2.33;63.35
46223;BME280;31943;51.410;7.564;2023-01-29T17:01:28;101045.38;;;2.29;63.50
46223;BME280;31943;51.410;7.564;2023-01-29T17:04:00;101041.84;;;2.27;63.47
46223;BME280;31943;51.410;7.564;2023-01-29T17:06:30;101037.41;;;2.25;63.67
46223;BME280;31943;51.410;7.564;2023-01-29T17:08:57;101030.75;;;2.28;63.58
46223;BME280;31943;51.410;7.564;2023-01-29T17:11:26;101023.09;;;2.30;63.71
46223;BME280;31943;51.410;7.564;2023-01-29T17:13:54;101022.19;;;2.29;63.61
46223;BME280;31943;51.410;7.564;2023-01-29T17:16:24;101020.69;;;2.33;63.65
46223;BME280;31943;51.410;7.564;2023-01-29T17:18:50;101015.28;;;2.28;63.66
46223;BME280;31943;51.410;7.564;2023-01-29T17:21:18;101016.06;;;2.27;63.71
46223;BME280;31943;51.410;7.564;2023-01-29T17:23:43;101006.69;;;2.28;63.77
46223;BME280;31943;51.410;7.564;2023-01-29T17:26:12;101006.50;;;2.25;63.78
46223;BME280;31943;51.410;7.564;2023-01-29T17:28:39;101016.91;;;2.26;63.73
46223;BME280;31943;51.410;7.564;2023-01-29T17:31:05;101017.63;;;2.24;63.85
46223;BME280;31943;51.410;7.564;2023-01-29T17:33:31;101015.75;;;2.21;64.01
46223;BME280;31943;51.410;7.564;2023-01-29T17:35:57;101008.19;;;2.24;64.14
46223;BME280;31943;51.410;7.564;2023-01-29T17:38:25;101013.97;;;2.20;63.97
46223;BME280;31943;51.410;7.564;2023-01-29T17:40:54;101007.13;;;2.21;64.24
46223;BME280;31943;51.410;7.564;2023-01-29T17:43:21;101009.72;;;2.21;64.13
46223;BME280;31943;51.410;7.564;2023-01-29T17:45:53;101007.88;;;2.18;64.24
46223;BME280;31943;51.410;7.564;2023-01-29T17:48:21;101009.97;;;2.25;64.26
46223;BME280;31943;51.410;7.564;2023-01-29T17:50:50;101002.41;;;2.28;64.04
46223;BME280;31943;51.410;7.564;2023-01-29T17:53:16;101010.22;;;2.30;64.32
46223;BME280;31943;51.410;7.564;2023-01-29T17:55:44;101000.72;;;2.29;64.09
46223;BME280;31943;51.410;7.564;2023-01-29T17:58:17;100993.09;;;2.30;64.26
46223;BME280;31943;51.410;7.564;2023-01-29T18:00:43;101000.25;;;2.36;64.22
46223;BME280;31943;51.410;7.564;2023-01-29T18:03:11;100995.75;;;2.32;64.25
46223;BME280;31943;51.410;7.564;2023-01-29T18:05:37;100998.22;;;2.30;64.20
46223;BME280;31943;51.410;7.564;2023-01-29T18:08:03;100993.19;;;2.32;64.47
46223;BME280;31943;51.410;7.564;2023-01-29T18:10:30;100997.50;;;2.33;64.33
46223;BME280;31943;51.410;7.564;2023-01-29T18:12:58;100990.59;;;2.32;64.27
46223;BME280;31943;51.410;7.564;2023-01-29T18:15:26;100983.75;;;2.32;64.43
46223;BME280;31943;51.410;7.564;2023-01-29T18:17:52;100984.47;;;2.30;64.36
46223;BME280;31943;51.410;7.564;2023-01-29T18:20:20;100982.59;;;2.27;64.37
46223;BME280;31943;51.410;7.564;2023-01-29T18:22:48;100977.44;;;2.27;64.38
46223;BME280;31943;51.410;7.564;2023-01-29T18:25:16;100981.72;;;2.27;64.50
46223;BME280;31943;51.410;7.564;2023-01-29T18:28:13;100973.44;;;2.32;64.35
46223;BME280;31943;51.410;7.564;2023-01-29T18:30:39;100971.75;;;2.33;64.65
46223;BME280;31943;51.410;7.564;2023-01-29T18:33:07;100966.28;;;2.27;64.69
46223;BME280;31943;51.410;7.564;2023-01-29T18:35:38;100965.72;;;2.32;64.73
46223;BME280;31943;51.410;7.564;2023-01-29T18:38:08;100952.13;;;2.35;64.79
46223;BME280;31943;51.410;7.564;2023-01-29T18:40:35;100952.38;;;2.40;64.68
46223;BME280;31943;51.410;7.564;2023-01-29T18:43:02;100945.53;;;2.40;64.77
46223;BME280;31943;51.410;7.564;2023-01-29T18:45:44;100934.44;;;2.41;64.72
46223;BME280;31943;51.410;7.564;2023-01-29T18:48:09;100933.53;;;2.41;64.74
46223;BME280;31943;51.410;7.564;2023-01-29T18:50:39;100912.94;;;2.41;64.81
46223;BME280;31943;51.410;7.564;2023-01-29T18:53:05;100907.88;;;2.42;64.94
46223;BME280;31943;51.410;7.564;2023-01-29T18:55:31;100903.34;;;2.38;65.00
46223;BME280;31943;51.410;7.564;2023-01-29T18:57:58;100897.88;;;2.32;65.58
46223;BME280;31943;51.410;7.564;2023-01-29T19:00:26;100895.22;;;2.30;65.41
46223;BME280;31943;51.410;7.564;2023-01-29T19:02:54;100888.53;;;2.34;65.39
46223;BME280;31943;51.410;7.564;2023-01-29T19:05:22;100894.66;;;2.36;65.38
46223;BME280;31943;51.410;7.564;2023-01-29T19:07:47;100898.03;;;2.35;65.27
46223;BME280;31943;51.410;7.564;2023-01-29T19:10:13;100892.81;;;2.33;65.24
46223;BME280;31943;51.410;7.564;2023-01-29T19:12:39;100898.75;;;2.32;65.43
46223;BME280;31943;51.410;7.564;2023-01-29T19:15:06;100901.09;;;2.28;65.56
46223;BME280;31943;51.410;7.564;2023-01-29T19:17:33;100893.28;;;2.26;65.88
46223;BME280;31943;51.410;7.564;2023-01-29T19:20:21;100899.00;;;2.21;65.82
46223;BME280;31943;51.410;7.564;2023-01-29T19:22:47;100899.00;;;2.21;66.06
46223;BME280;31943;51.410;7.564;2023-01-29T19:25:12;100899.88;;;2.21;65.86
46223;BME280;31943;51.410;7.564;2023-01-29T19:27:39;100900.78;;;2.22;66.06
46223;BME280;31943;51.410;7.564;2023-01-29T19:30:06;100895.69;;;2.23;66.10
46223;BME280;31943;51.410;7.564;2023-01-29T19:32:32;100885.47;;;2.25;66.37
46223;BME280;31943;51.410;7.564;2023-01-29T19:34:58;100889.88;;;2.27;66.34
46223;BME280;31943;51.410;7.564;2023-01-29T19:37:25;100888.13;;;2.26;66.50
46223;BME280;31943;51.410;7.564;2023-01-29T19:39:51;100876.69;;;2.21;66.59
46223;BME280;31943;51.410;7.564;2023-01-29T19:42:17;100878.63;;;2.25;66.59
46223;BME280;31943;51.410;7.564;2023-01-29T19:44:42;100869.88;;;2.22;66.76
46223;BME280;31943;51.410;7.564;2023-01-29T19:47:08;100856.09;;;2.21;67.09
46223;BME280;31943;51.410;7.564;2023-01-29T19:49:33;100851.91;;;2.23;67.22
46223;BME280;31943;51.410;7.564;2023-01-29T19:51:59;100849.28;;;2.22;67.08
46223;BME280;31943;51.410;7.564;2023-01-29T19:54:26;100841.19;;;2.15;67.53
46223;BME280;31943;51.410;7.564;2023-01-29T19:56:52;100837.59;;;2.12;67.63
46223;BME280;31943;51.410;7.564;2023-01-29T19:59:18;100847.16;;;2.14;67.43
46223;BME280;31943;51.410;7.564;2023-01-29T20:01:43;100843.06;;;2.18;67.63
46223;BME280;31943;51.410;7.564;2023-01-29T20:04:10;100848.31;;;2.20;67.63
46223;BME280;31943;51.410;7.564;2023-01-29T20:06:37;100843.94;;;2.18;67.62
46223;BME280;31943;51.410;7.564;2023-01-29T20:09:03;100833.97;;;2.08;67.97
46223;BME280;31943;51.410;7.564;2023-01-29T20:11:31;100826.34;;;2.10;67.91
46223;BME280;31943;51.410;7.564;2023-01-29T20:13:58;100816.19;;;2.13;67.89
46223;BME280;31943;51.410;7.564;2023-01-29T20:16:24;100809.09;;;2.09;68.15
46223;BME280;31943;51.410;7.564;2023-01-29T20:18:50;100812.72;;;2.12;67.94
46223;BME280;31943;51.410;7.564;2023-01-29T20:21:18;100795.44;;;2.10;68.08